Portada
METAR-TAF:

METAR-TAF

Aeroports :

Kwajalein, Illes Marshall

latitud: 08-43N, longitud: 167-44E, altitud: 3 m

Observació

L'informe es va fer fa 24 minuts, a les 09:20 UTC
Vent 17 kt del Est/Nord-Est
Temperatura 28°C
Humitat 79%
Pressió 1011 hPa
Visibilitat: 16.1 km
Núvols disperses a una alçada de 2200 ft

METAR: PKWA 060920Z AUTO 07017KT 10SM SCT022 28/24 A2984 RMK AO2 T02800238

Hora: 21:44 (09:44 UTC)

Pronòstic

L'informe es va fer fa 4 hores i 4 minuts, a les 05:40 UTC
Pronòstic vàlid del 06 a les 06 UTC al 07 a les 06 UTC
Vent 20 kt del Est
Visibilitat: 10 km
Núvols disperses a una alçada de 2000 ft
Núvols disperses a una alçada de 4500 ft
xàfecs en les proximitats

TAF: PKWA 060540Z 0606/0706 08020KT P6SM VCSH SCT020 SCT045

Observacions i pronòstics meteorològics de més de 4000 aeroports (METAR i TAF).

Les estacions disponibles són els punts grocs i vermells al mapa.

Posi el ratolí al punt desitjat per veure el nom de l'estació.

Feu clic per veure les observacions i els pronòstics meteorològics.

Per canviar el mapa: feu clic els botons verds amb una creu de color negre per apropar; al botó verd amb un guió per allunyar la imatge; o en les fletxes verdes per a mapes adjacents.


METAR-TAF: